Time;durP1;ratioP1;P1;durP2;ratioP2;P2;SDS_P1;SDS_P2;PMS_P1;PMS_P2;Temp;Humidity;BMP_temperature;BMP_pressure;BME280_temperature;BME280_humidity;BME280_pressure;Samples;Min_cycle;Max_cycle;Signal;HPM_P1;HPM_P2
2021/12/06 00:00:19;;;;;;;4.85;2.72;;;;;;;-5.85;97.56;102043.84;4817724;29;20038;-77
2021/12/06 00:02:44;;;;;;;4.05;2.35;;;;;;;-5.85;97.37;102033.38;4811381;29;20043;-77
2021/12/06 00:05:11;;;;;;;3.00;2.00;;;;;;;-5.79;97.25;102041.00;4808012;29;20130;-76
2021/12/06 00:07:38;;;;;;;5.40;2.45;;;;;;;-5.85;97.52;102036.00;4808983;29;20034;-77
2021/12/06 00:10:05;;;;;;;3.33;2.15;;;;;;;-5.81;97.50;102031.47;4817784;29;20473;-76
2021/12/06 00:12:32;;;;;;;7.78;4.05;;;;;;;-5.72;97.06;102046.84;4832282;29;20070;-76
2021/12/06 00:14:58;;;;;;;5.63;3.20;;;;;;;-5.71;97.23;102036.25;4828472;29;20038;-77
2021/12/06 00:17:24;;;;;;;7.15;4.03;;;;;;;-5.73;97.02;102040.75;4827093;29;20026;-77
2021/12/06 00:19:50;;;;;;;5.13;2.75;;;;;;;-5.80;96.87;102025.31;4811365;29;20038;-76
2021/12/06 00:22:22;;;;;;;12.45;6.65;;;;;;;-5.86;97.22;102023.81;4793783;29;20061;-77
2021/12/06 00:24:48;;;;;;;8.23;4.15;;;;;;;-5.90;96.97;102020.44;4808060;29;20430;-77
2021/12/06 00:27:14;;;;;;;31.42;14.85;;;;;;;-5.80;97.14;102041.03;4808231;29;20027;-77
2021/12/06 00:29:39;;;;;;;14.30;7.45;;;;;;;-5.95;96.95;102013.75;4809933;29;20343;-77
2021/12/06 00:32:05;;;;;;;15.43;7.93;;;;;;;-5.78;96.95;102041.84;4807977;29;20034;-77
2021/12/06 00:34:34;;;;;;;6.47;3.42;;;;;;;-5.88;97.03;102036.13;4807910;29;20034;-76
2021/12/06 00:39:51;;;;;;;10.25;5.18;;;;;;;-5.91;97.17;102039.72;4810106;29;20070;-78
2021/12/06 00:42:21;;;;;;;6.88;4.07;;;;;;;-5.88;97.24;102035.28;4811551;29;20026;-77
2021/12/06 00:44:46;;;;;;;9.57;4.60;;;;;;;-6.04;97.60;102009.72;4810370;29;20046;-77
2021/12/06 00:47:12;;;;;;;3.70;2.30;;;;;;;-5.96;97.43;102028.63;4804532;29;20031;-78
2021/12/06 00:49:37;;;;;;;2.47;1.67;;;;;;;-6.06;97.65;102027.28;4791687;30;20042;-77
2021/12/06 00:52:05;;;;;;;3.47;2.08;;;;;;;-6.05;97.94;102022.91;4791398;30;20083;-77
2021/12/06 00:54:34;;;;;;;1.77;1.30;;;;;;;-6.18;97.86;102002.41;4791301;30;20446;-78
2021/12/06 00:57:01;;;;;;;4.78;2.30;;;;;;;-6.00;97.44;102021.78;4782915;29;20377;-77
2021/12/06 00:59:28;;;;;;;3.25;1.75;;;;;;;-6.10;97.33;102016.97;4808226;29;20426;-77
2021/12/06 01:01:54;;;;;;;3.63;2.15;;;;;;;-5.97;97.73;102037.38;4812559;29;20063;-78
2021/12/06 01:04:20;;;;;;;4.55;2.83;;;;;;;-5.97;97.36;102040.00;4814994;29;20042;-77
2021/12/06 01:06:47;;;;;;;2.65;1.63;;;;;;;-6.10;97.58;102024.84;4809150;29;20038;-77
2021/12/06 01:09:12;;;;;;;3.72;1.88;;;;;;;-6.06;97.60;102035.16;4801467;29;20078;-78
2021/12/06 01:11:38;;;;;;;3.78;2.30;;;;;;;-6.15;98.01;102033.75;4789052;30;20077;-77
2021/12/06 01:14:03;;;;;;;3.45;2.30;;;;;;;-6.08;97.29;102036.13;4795413;29;20438;-77
2021/12/06 01:16:29;;;;;;;2.72;1.98;;;;;;;-6.10;97.42;102044.03;4808888;29;20039;-77
2021/12/06 01:18:55;;;;;;;6.20;3.40;;;;;;;-6.11;97.45;102044.09;4795699;29;20496;-77
2021/12/06 01:21:32;;;;;;;3.90;2.47;;;;;;;-6.54;97.70;101970.69;4790387;29;20043;-77
2021/12/06 01:24:00;;;;;;;5.32;2.60;;;;;;;-6.21;97.53;102025.28;4801660;29;20343;-76
2021/12/06 01:31:54;;;;;;;5.40;2.63;;;;;;;-6.28;98.13;102026.44;4808721;29;20130;-77
2021/12/06 01:39:52;;;;;;;3.53;2.22;;;;;;;-6.31;99.00;102024.78;4806850;29;20290;-77
2021/12/06 01:42:17;;;;;;;3.55;2.38;;;;;;;-6.41;98.47;102005.09;4808004;29;20038;-76
2021/12/06 01:44:46;;;;;;;10.13;4.13;;;;;;;-6.41;98.58;101994.63;4807838;29;20035;-77
2021/12/06 01:47:14;;;;;;;8.00;3.65;;;;;;;-6.22;98.48;102028.81;4805989;29;20179;-77
2021/12/06 01:49:48;;;;;;;7.90;3.10;;;;;;;-6.23;98.51;102029.72;4808291;29;20482;-77
2021/12/06 01:52:19;;;;;;;8.57;3.30;;;;;;;-6.23;98.30;102035.78;4806022;29;20127;-77
2021/12/06 01:54:45;;;;;;;4.28;2.40;;;;;;;-6.20;98.67;102033.06;4809070;29;20156;-77
2021/12/06 01:57:12;;;;;;;3.75;2.33;;;;;;;-6.18;98.19;102039.09;4822247;29;20039;-77
2021/12/06 01:59:38;;;;;;;9.25;3.28;;;;;;;-6.18;98.55;102040.88;4808924;29;20031;-77
2021/12/06 02:02:06;;;;;;;4.53;2.38;;;;;;;-6.21;98.29;102044.47;4804285;29;20039;-77
2021/12/06 02:04:33;;;;;;;3.17;2.20;;;;;;;-6.22;98.74;102040.13;4788643;29;20039;-77
2021/12/06 02:06:59;;;;;;;10.45;4.53;;;;;;;-6.18;98.62;102044.34;4792128;29;20035;-77
2021/12/06 02:09:27;;;;;;;18.85;6.90;;;;;;;-6.29;98.10;102022.97;4805377;29;20458;-77
2021/12/06 02:11:59;;;;;;;16.80;6.55;;;;;;;-6.32;98.40;102014.34;4791933;29;20046;-77
2021/12/06 02:17:15;;;;;;;16.13;7.20;;;;;;;-6.30;98.72;102020.38;4789767;30;20067;-77
2021/12/06 02:19:51;;;;;;;21.02;8.32;;;;;;;-6.48;98.91;102001.03;4797690;29;20110;-77
2021/12/06 02:22:27;;;;;;;5.78;2.60;;;;;;;-6.32;98.92;102023.09;4806967;29;20086;-77
2021/12/06 02:24:55;;;;;;;9.57;4.55;;;;;;;-6.33;99.16;102025.75;4810757;29;20043;-77
2021/12/06 02:27:23;;;;;;;3.30;2.50;;;;;;;-6.48;99.03;101998.41;4812591;29;20039;-77
2021/12/06 02:29:51;;;;;;;5.88;2.47;;;;;;;-6.22;98.89;102041.91;4806463;29;20398;-77
2021/12/06 02:32:17;;;;;;;4.43;2.22;;;;;;;-6.28;99.10;102043.00;4807574;29;20026;-77
2021/12/06 02:34:51;;;;;;;4.10;2.40;;;;;;;-6.25;99.16;102031.56;4806279;29;20414;-77
2021/12/06 02:37:22;;;;;;;3.75;2.40;;;;;;;-6.11;98.70;102049.34;4822431;29;20059;-77
2021/12/06 02:39:47;;;;;;;4.28;2.53;;;;;;;-6.25;98.86;102032.41;4807034;29;20034;-77
2021/12/06 02:42:16;;;;;;;6.63;2.80;;;;;;;-6.30;99.07;102026.47;4808418;29;20035;-77
2021/12/06 02:44:44;;;;;;;5.03;2.65;;;;;;;-6.26;99.43;102037.69;4807077;29;20035;-77
2021/12/06 02:47:10;;;;;;;4.50;2.67;;;;;;;-6.30;99.51;102023.84;4811046;29;20354;-77
2021/12/06 02:49:35;;;;;;;3.63;2.33;;;;;;;-6.24;99.40;102036.72;4811568;29;20037;-77
2021/12/06 02:52:01;;;;;;;4.15;2.40;;;;;;;-6.32;99.79;102030.94;4805703;29;20367;-77
2021/12/06 02:54:27;;;;;;;4.57;2.70;;;;;;;-6.28;100.00;102039.53;4806403;29;20037;-77
2021/12/06 02:57:17;;;;;;;4.10;2.38;;;;;;;-6.32;99.38;102025.72;4806368;29;20038;-77
2021/12/06 02:59:44;;;;;;;4.05;2.67;;;;;;;-6.25;99.51;102027.16;4804999;29;20035;-77
2021/12/06 03:02:14;;;;;;;7.53;2.60;;;;;;;-6.22;99.34;102027.03;4805235;29;20057;-77
2021/12/06 03:04:41;;;;;;;4.28;2.53;;;;;;;-6.28;99.65;102036.91;4806233;29;20077;-77
2021/12/06 03:07:08;;;;;;;3.58;2.28;;;;;;;-6.27;99.57;102026.34;4806008;29;20027;-76
2021/12/06 03:09:37;;;;;;;3.65;2.47;;;;;;;-6.21;99.01;102031.34;4791076;29;20078;-77
2021/12/06 03:12:03;;;;;;;4.03;2.47;;;;;;;-6.29;99.65;102028.22;4789073;29;20042;-76
2021/12/06 03:14:42;;;;;;;3.63;2.47;;;;;;;-6.29;99.33;102009.88;4789289;29;20023;-77
2021/12/06 03:17:11;;;;;;;2.92;2.30;;;;;;;-6.25;99.09;102027.16;4794468;29;20045;-77
2021/12/06 03:19:37;;;;;;;6.45;2.72;;;;;;;-6.25;99.40;102029.78;4806586;29;20039;-77
2021/12/06 03:22:03;;;;;;;3.35;2.30;;;;;;;-6.27;99.46;102017.66;4805888;29;20505;-77
2021/12/06 03:24:29;;;;;;;3.65;2.30;;;;;;;-6.18;99.10;102020.75;4807433;29;20088;-77
2021/12/06 03:26:54;;;;;;;5.13;2.38;;;;;;;-6.32;99.44;102003.88;4805700;29;20046;-77
2021/12/06 03:29:20;;;;;;;4.63;2.53;;;;;;;-6.19;99.52;102015.56;4805037;29;20027;-77
2021/12/06 03:31:47;;;;;;;4.65;2.78;;;;;;;-6.19;99.04;102015.56;4809593;29;20035;-77
2021/12/06 03:34:13;;;;;;;5.30;2.50;;;;;;;-6.15;99.45;102014.56;4807632;29;20038;-77
2021/12/06 03:36:39;;;;;;;3.60;2.30;;;;;;;-6.24;99.42;101991.34;4808489;29;20213;-77
2021/12/06 03:39:10;;;;;;;4.07;2.22;;;;;;;-6.29;99.85;101991.53;4810375;29;20042;-77
2021/12/06 03:41:36;;;;;;;5.30;2.92;;;;;;;-6.22;99.79;102003.47;4802427;29;20077;-77
2021/12/06 03:44:04;;;;;;;4.10;2.30;;;;;;;-6.20;99.49;102009.47;4806822;29;20059;-77
2021/12/06 03:46:31;;;;;;;4.15;1.90;;;;;;;-6.23;99.83;102009.59;4791737;29;20041;-77
2021/12/06 03:48:57;;;;;;;3.35;2.08;;;;;;;-6.22;100.00;102008.72;4795542;30;20096;-77
2021/12/06 03:51:24;;;;;;;3.05;2.13;;;;;;;-6.18;99.83;102002.41;4795019;29;20536;-77
2021/12/06 03:53:49;;;;;;;6.68;2.55;;;;;;;-6.11;99.73;101996.94;4808327;29;20178;-77
2021/12/06 03:56:15;;;;;;;5.00;2.53;;;;;;;-6.06;99.38;102000.22;4809168;29;20490;-77
2021/12/06 03:58:44;;;;;;;3.67;2.38;;;;;;;-6.16;99.50;101997.97;4806825;29;20368;-77
2021/12/06 04:01:10;;;;;;;2.63;2.15;;;;;;;-6.20;99.48;102001.63;4810264;29;20038;-77
2021/12/06 04:03:37;;;;;;;4.75;2.60;;;;;;;-6.17;99.47;102003.28;4808041;29;20031;-77
2021/12/06 04:06:04;;;;;;;4.57;2.63;;;;;;;-6.22;99.13;102000.00;4808992;29;20046;-77
2021/12/06 04:08:29;;;;;;;3.90;2.60;;;;;;;-6.23;99.03;101996.50;4809938;29;20038;-77
2021/12/06 04:10:55;;;;;;;4.35;2.55;;;;;;;-6.14;98.74;102003.16;4813732;29;20050;-77
2021/12/06 04:13:23;;;;;;;3.33;2.45;;;;;;;-6.16;99.03;102003.22;4809787;29;20502;-77
2021/12/06 04:15:48;;;;;;;4.35;2.80;;;;;;;-6.13;98.64;101998.75;4808308;29;20046;-77
2021/12/06 04:18:14;;;;;;;4.10;2.42;;;;;;;-6.29;98.96;101975.81;4805573;29;20042;-77
2021/12/06 04:20:40;;;;;;;4.35;2.33;;;;;;;-6.11;98.91;102000.41;4809272;29;20026;-77
2021/12/06 04:23:08;;;;;;;3.70;2.13;;;;;;;-6.15;98.56;101986.56;4808521;29;20034;-77
2021/12/06 04:25:36;;;;;;;3.95;2.50;;;;;;;-6.13;98.84;101998.75;4808259;29;20042;-77
2021/12/06 04:28:06;;;;;;;3.17;1.95;;;;;;;-6.19;98.71;101994.59;4809367;29;20381;-77
2021/12/06 04:30:34;;;;;;;3.80;2.45;;;;;;;-6.27;98.75;101984.44;4806339;29;20043;-77
2021/12/06 04:33:00;;;;;;;5.35;2.22;;;;;;;-6.20;98.84;101998.16;4810465;29;20031;-77
2021/12/06 04:35:28;;;;;;;3.50;2.28;;;;;;;-6.28;98.98;101985.38;4807605;29;20045;-77
2021/12/06 04:37:55;;;;;;;3.83;2.28;;;;;;;-6.22;98.53;101987.75;4805177;29;20130;-77
2021/12/06 04:40:21;;;;;;;3.03;2.13;;;;;;;-6.19;98.68;101990.25;4808300;29;20113;-77
2021/12/06 04:42:46;;;;;;;3.63;2.33;;;;;;;-6.23;98.96;101990.41;4805610;29;20061;-77
2021/12/06 04:45:14;;;;;;;5.20;2.30;;;;;;;-6.22;98.61;101993.00;4801878;29;20054;-78
2021/12/06 04:47:40;;;;;;;4.13;2.05;;;;;;;-6.29;98.58;101988.91;4808661;29;20039;-77
2021/12/06 04:50:09;;;;;;;2.90;1.67;;;;;;;-6.30;98.86;101994.19;4807678;29;20030;-77
2021/12/06 04:52:36;;;;;;;3.78;1.60;;;;;;;-6.52;99.01;101973.25;4809409;29;20426;-76
2021/12/06 04:55:06;;;;;;;3.47;2.13;;;;;;;-6.35;99.17;101996.16;4808164;29;20026;-78
2021/12/06 04:57:36;;;;;;;3.33;2.08;;;;;;;-6.41;99.58;101989.41;4806253;29;20043;-77
2021/12/06 05:00:11;;;;;;;4.05;2.35;;;;;;;-6.29;98.89;101998.50;4809376;29;20026;-77
2021/12/06 05:02:38;;;;;;;3.30;2.00;;;;;;;-6.34;98.57;102000.47;4806024;29;20079;-77
2021/12/06 05:05:12;;;;;;;4.03;2.47;;;;;;;-6.44;98.82;102002.59;4809284;29;20465;-77
2021/12/06 05:07:43;;;;;;;;;;;;;;;-6.47;98.83;101994.88;4811761;29;20090;-77
2021/12/06 05:10:12;;;;;;;3.75;1.95;;;;;;;-6.47;99.03;101995.72;4807209;29;20334;-77
2021/12/06 05:12:41;;;;;;;4.00;2.20;;;;;;;-6.53;98.85;101995.09;4808259;29;20027;-77
2021/12/06 05:15:08;;;;;;;2.70;1.80;;;;;;;-6.60;98.70;101991.03;4809518;29;20027;-77
2021/12/06 05:17:34;;;;;;;2.70;2.00;;;;;;;-6.60;98.96;101988.41;4807507;29;20062;-77
2021/12/06 05:19:59;;;;;;;3.15;2.00;;;;;;;-6.72;98.65;101979.25;4792658;29;20107;-78
2021/12/06 05:22:27;;;;;;;3.65;2.10;;;;;;;-6.64;98.73;101990.28;4807310;29;20179;-78
2021/12/06 05:24:53;;;;;;;3.78;2.03;;;;;;;-6.74;98.84;101970.63;4808150;29;20043;-77
2021/12/06 05:27:27;;;;;;;5.07;2.55;;;;;;;-6.72;98.31;101966.16;4814650;29;20374;-78
2021/12/06 05:29:57;;;;;;;3.30;2.25;;;;;;;-6.66;98.56;101981.63;4807644;29;20096;-78
2021/12/06 05:32:25;;;;;;;4.10;2.13;;;;;;;-6.66;98.11;101979.88;4807178;29;20035;-78
2021/12/06 05:34:57;;;;;;;3.17;2.13;;;;;;;-6.77;98.92;101970.75;4801010;29;20034;-79
2021/12/06 05:37:23;;;;;;;4.55;2.33;;;;;;;-6.74;98.57;101963.63;4802957;29;20070;-78
2021/12/06 05:39:48;;;;;;;4.60;2.40;;;;;;;-6.71;98.59;101973.13;4805936;29;20035;-78
2021/12/06 05:42:15;;;;;;;4.25;2.13;;;;;;;-6.67;98.40;101978.19;4806745;29;20046;-77
2021/12/06 05:44:41;;;;;;;3.83;2.20;;;;;;;-6.56;98.59;101987.38;4804713;29;20053;-78
2021/12/06 05:47:07;;;;;;;4.10;2.35;;;;;;;-6.57;98.64;101972.59;4804836;29;20109;-79
2021/12/06 05:49:33;;;;;;;4.40;2.05;;;;;;;-6.57;98.38;101977.81;4806571;29;20129;-77
2021/12/06 05:51:59;;;;;;;5.20;3.50;;;;;;;-6.49;98.31;101981.84;4819703;29;20050;-77
2021/12/06 05:54:25;;;;;;;10.70;5.88;;;;;;;-6.49;98.88;101984.47;4806551;29;20026;-78
2021/12/06 05:56:52;;;;;;;5.78;4.03;;;;;;;-6.45;98.75;101987.81;4801327;29;20094;-79
2021/12/06 05:59:18;;;;;;;14.50;11.20;;;;;;;-6.41;98.58;101976.31;4802021;29;20117;-78
2021/12/06 06:01:48;;;;;;;11.55;8.88;;;;;;;-6.32;97.90;101990.78;4801900;29;20440;-77
2021/12/06 06:04:14;;;;;;;4.78;3.47;;;;;;;-6.37;98.55;101990.97;4801060;29;20027;-77
2021/12/06 06:06:39;;;;;;;5.18;2.97;;;;;;;-6.42;98.40;101983.31;4802723;29;20039;-77
2021/12/06 06:09:06;;;;;;;4.18;2.42;;;;;;;-6.36;98.66;101981.34;4801684;29;20043;-78
2021/12/06 06:11:34;;;;;;;3.33;2.50;;;;;;;-6.31;98.34;101985.50;4808319;29;20039;-78
2021/12/06 06:14:01;;;;;;;5.10;2.33;;;;;;;-6.28;98.56;101988.00;4806868;29;20030;-77
2021/12/06 06:16:31;;;;;;;5.40;2.70;;;;;;;-6.32;97.96;101978.56;4805142;29;20058;-77
2021/12/06 06:18:57;;;;;;;4.97;2.40;;;;;;;-6.25;98.05;101984.41;4806424;29;20472;-78
2021/12/06 06:21:22;;;;;;;3.38;2.53;;;;;;;-6.26;98.35;101983.53;4803975;29;20051;-78
2021/12/06 06:23:48;;;;;;;3.95;2.35;;;;;;;-6.31;98.32;101971.56;4804619;29;20038;-77
2021/12/06 06:26:14;;;;;;;4.57;2.60;;;;;;;-6.34;98.79;101977.75;4819533;29;20475;-77
2021/12/06 06:28:39;;;;;;;3.30;2.15;;;;;;;-6.34;98.67;101983.00;4799011;29;20035;-77
2021/12/06 06:31:05;;;;;;;3.30;2.42;;;;;;;-6.35;98.63;101989.16;4801137;29;20118;-77
2021/12/06 06:33:30;;;;;;;3.95;2.13;;;;;;;-6.42;98.54;101977.22;4802007;29;20168;-77
2021/12/06 06:35:56;;;;;;;5.47;2.50;;;;;;;-6.37;98.87;101996.22;4806256;29;20073;-77
2021/12/06 06:38:22;;;;;;;3.00;2.30;;;;;;;-6.40;98.49;101986.69;4803086;29;20370;-78
2021/12/06 06:40:50;;;;;;;3.45;2.30;;;;;;;-6.24;98.14;101996.56;4804395;29;20042;-77
2021/12/06 06:43:17;;;;;;;3.22;2.40;;;;;;;-6.47;98.08;101968.69;4805566;29;20103;-77
2021/12/06 06:45:43;;;;;;;5.10;2.70;;;;;;;-6.28;98.57;102000.25;4798026;29;20546;-77
2021/12/06 06:48:08;;;;;;;3.55;2.47;;;;;;;-6.35;98.67;102001.41;4786717;29;20076;-77
2021/12/06 06:50:34;;;;;;;2.50;1.98;;;;;;;-6.31;98.75;102001.22;4810022;29;20418;-79
2021/12/06 06:53:01;;;;;;;4.93;2.30;;;;;;;-6.31;98.97;101997.75;4810889;29;20023;-78
2021/12/06 06:55:27;;;;;;;5.07;2.50;;;;;;;-6.31;98.68;101995.13;4806888;29;20095;-78
2021/12/06 06:57:52;;;;;;;4.55;2.55;;;;;;;-6.29;98.53;101998.50;4806855;29;20035;-78
2021/12/06 07:00:24;;;;;;;4.65;2.33;;;;;;;-6.25;98.45;101989.66;4788853;29;20370;-78
2021/12/06 07:02:49;;;;;;;3.22;2.50;;;;;;;-6.18;98.34;101996.34;4806557;29;20037;-78
2021/12/06 07:05:15;;;;;;;6.30;2.20;;;;;;;-6.22;98.47;101994.75;4803330;29;20038;-79
2021/12/06 07:07:41;;;;;;;3.65;2.38;;;;;;;-6.32;98.59;101983.81;4798942;29;20038;-78
2021/12/06 07:10:08;;;;;;;3.83;2.42;;;;;;;-6.28;98.95;101989.75;4809307;29;20042;-78
2021/12/06 07:12:41;;;;;;;4.53;3.13;;;;;;;-6.21;98.47;101996.47;4805425;29;20035;-78
2021/12/06 07:15:08;;;;;;;5.47;2.72;;;;;;;-6.19;98.75;101997.22;4803745;29;20058;-78
2021/12/06 07:17:33;;;;;;;9.05;4.15;;;;;;;-6.20;98.34;101998.16;4804808;29;20462;-78
2021/12/06 07:20:00;;;;;;;11.52;6.05;;;;;;;-6.17;98.43;101998.88;4812546;29;20035;-78
2021/12/06 07:22:26;;;;;;;11.48;6.38;;;;;;;-6.12;98.46;102008.31;4797144;29;20341;-79
2021/12/06 07:24:51;;;;;;;7.53;4.80;;;;;;;-6.04;97.88;102001.00;4809866;29;20050;-78
2021/12/06 07:27:17;;;;;;;7.38;3.85;;;;;;;-6.15;98.08;101985.72;4812053;29;20474;-78
2021/12/06 07:29:43;;;;;;;4.65;3.45;;;;;;;-6.08;98.10;102002.06;4809562;29;20467;-78
2021/12/06 07:32:08;;;;;;;6.75;4.43;;;;;;;-6.01;98.04;102006.13;4810385;29;20115;-78
2021/12/06 07:34:36;;;;;;;15.15;7.40;;;;;;;-5.96;97.73;102002.41;4810623;29;20156;-79
2021/12/06 07:37:03;;;;;;;15.10;7.63;;;;;;;-5.97;97.82;101997.22;4815792;29;20059;-78
2021/12/06 07:39:29;;;;;;;11.60;6.35;;;;;;;-5.98;97.74;102004.22;4816796;29;20039;-78
2021/12/06 07:41:55;;;;;;;31.70;15.77;;;;;;;-5.96;97.52;102009.38;4803729;29;20034;-78
2021/12/06 07:44:20;;;;;;;14.15;6.00;;;;;;;-6.00;97.87;101990.31;4805717;29;20034;-79
2021/12/06 07:46:47;;;;;;;9.07;6.10;;;;;;;-5.95;97.77;102004.09;4808207;29;20070;-78
2021/12/06 07:49:14;;;;;;;11.63;3.90;;;;;;;-6.01;97.79;101987.78;4808595;29;20113;-78
2021/12/06 07:51:39;;;;;;;4.30;2.70;;;;;;;-5.96;97.58;101994.53;4807499;29;20094;-79
2021/12/06 07:54:05;;;;;;;7.32;3.30;;;;;;;-5.97;97.73;101997.22;4807033;29;20117;-79
2021/12/06 07:56:30;;;;;;;5.93;2.45;;;;;;;-6.03;97.84;101997.47;4808788;29;20476;-78
2021/12/06 07:58:56;;;;;;;7.43;4.18;;;;;;;-6.07;97.61;101985.41;4807977;29;20042;-78
2021/12/06 08:01:21;;;;;;;8.38;2.58;;;;;;;-6.03;97.96;101997.47;4804905;29;20074;-78
2021/12/06 08:03:47;;;;;;;5.53;2.83;;;;;;;-5.97;97.52;101995.44;4813214;29;20058;-79
2021/12/06 08:06:12;;;;;;;9.00;3.17;;;;;;;-5.99;97.83;101989.44;4813964;29;20042;-78
2021/12/06 08:08:39;;;;;;;7.15;2.70;;;;;;;-6.00;98.09;101989.47;4809996;29;20039;-78
2021/12/06 08:11:11;;;;;;;11.60;2.17;;;;;;;-6.16;97.80;101958.69;4836058;29;20095;-79
2021/12/06 08:13:39;;;;;;;5.05;2.80;;;;;;;-5.97;97.76;101976.25;4810629;29;20454;-78
2021/12/06 08:16:11;;;;;;;11.50;3.22;;;;;;;-5.91;97.53;101989.06;4802760;29;21825;-78
2021/12/06 08:18:37;;;;;;;6.38;3.00;;;;;;;-5.89;97.45;101982.00;4805201;29;20037;-78
2021/12/06 08:21:04;;;;;;;5.40;2.78;;;;;;;-5.91;97.25;101975.97;4804833;29;20035;-79
2021/12/06 08:23:31;;;;;;;6.30;3.13;;;;;;;-5.84;97.42;101984.41;4803314;29;20596;-78
2021/12/06 08:25:57;;;;;;;5.95;2.22;;;;;;;-5.90;97.54;101975.03;4803347;29;20034;-78
2021/12/06 08:28:26;;;;;;;4.22;2.40;;;;;;;-5.83;97.58;101983.50;4803368;29;20077;-78
2021/12/06 08:30:52;;;;;;;8.38;2.80;;;;;;;-5.76;97.15;101975.31;4802022;29;20058;-78
2021/12/06 08:33:19;;;;;;;6.13;2.70;;;;;;;-5.78;97.08;101961.41;4804025;29;20030;-78
2021/12/06 08:35:46;;;;;;;5.05;2.70;;;;;;;-5.71;96.99;101964.63;4806770;29;20366;-74
2021/12/06 08:38:15;;;;;;;8.13;2.95;;;;;;;-5.76;96.83;101945.63;4816563;29;20069;-78
2021/12/06 08:40:42;;;;;;;8.75;2.40;;;;;;;-5.77;97.00;101955.25;4805577;29;20069;-78
2021/12/06 08:43:07;;;;;;;5.35;2.70;;;;;;;-5.74;97.00;101951.66;4805946;29;20038;-78
2021/12/06 08:45:34;;;;;;;3.15;2.00;;;;;;;-5.88;97.38;101936.53;4810611;29;20370;-78
2021/12/06 08:48:00;;;;;;;7.13;2.60;;;;;;;-5.62;96.86;101947.66;4810085;29;20129;-79
2021/12/06 08:50:27;;;;;;;4.65;2.33;;;;;;;-5.52;96.58;101946.34;4819798;29;20079;-79
2021/12/06 08:52:54;;;;;;;5.28;2.67;;;;;;;-5.55;96.64;101936.84;4810203;29;20035;-78
2021/12/06 08:55:20;;;;;;;5.72;2.33;;;;;;;-5.52;96.43;101925.38;4805431;29;20038;-78
2021/12/06 08:57:45;;;;;;;6.35;3.05;;;;;;;-5.30;95.96;101936.56;4821584;29;20035;-78
2021/12/06 09:00:17;;;;;;;4.63;2.67;;;;;;;-5.33;95.77;101935.84;4808696;29;20042;-78
2021/12/06 09:02:43;;;;;;;3.55;2.22;;;;;;;-5.33;95.96;101922.75;4807351;29;20128;-78
2021/12/06 09:05:10;;;;;;;5.82;2.50;;;;;;;-5.12;95.78;101941.94;4813260;29;20097;-78
2021/12/06 09:07:36;;;;;;;9.43;4.82;;;;;;;-5.12;95.48;101944.56;4807244;29;20041;-78
2021/12/06 09:10:05;;;;;;;9.02;3.05;;;;;;;-5.06;95.54;101942.50;4809164;29;20031;-78
2021/12/06 09:12:32;;;;;;;5.82;3.25;;;;;;;-4.94;95.27;101943.69;4806779;29;20469;-79
2021/12/06 09:15:02;;;;;;;6.35;2.55;;;;;;;-4.84;94.90;101950.22;4807967;29;20454;-78
2021/12/06 09:17:28;;;;;;;4.47;2.75;;;;;;;-5.00;94.96;101936.09;4822524;29;20054;-79
2021/12/06 09:19:54;;;;;;;5.00;2.38;;;;;;;-4.93;94.65;101950.66;4828944;29;20398;-79
2021/12/06 09:22:19;;;;;;;6.60;2.55;;;;;;;-4.85;94.82;101951.13;4810381;29;20077;-78
2021/12/06 09:24:45;;;;;;;3.97;2.42;;;;;;;-4.69;94.65;101956.53;4804336;29;20066;-78
2021/12/06 09:27:11;;;;;;;4.75;2.28;;;;;;;-4.68;94.81;101955.59;4797482;29;20583;-78
2021/12/06 09:29:38;;;;;;;5.88;2.30;;;;;;;-4.63;94.33;101965.91;4804303;29;20027;-79
2021/12/06 09:32:11;;;;;;;4.72;2.65;;;;;;;-4.52;94.37;101964.44;4809268;29;20038;-78
2021/12/06 09:34:41;;;;;;;4.80;2.53;;;;;;;-4.44;94.02;101961.44;4808334;29;20027;-78
2021/12/06 09:37:08;;;;;;;2.83;2.10;;;;;;;-4.34;93.97;101969.72;4810370;29;20047;-78
2021/12/06 09:39:34;;;;;;;2.67;1.88;;;;;;;-4.45;93.30;101969.41;4800378;29;20076;-78
2021/12/06 09:42:00;;;;;;;3.90;2.50;;;;;;;-4.44;93.37;101961.44;4813005;29;20104;-78
2021/12/06 09:44:26;;;;;;;5.82;2.25;;;;;;;-4.45;92.78;101962.38;4819052;29;20042;-78
2021/12/06 09:46:52;;;;;;;3.45;2.40;;;;;;;-4.37;93.15;101951.50;4794672;29;20069;-78
2021/12/06 09:49:20;;;;;;;3.05;1.90;;;;;;;-4.35;93.31;101950.50;4804898;29;20058;-78
2021/12/06 09:51:53;;;;;;;2.75;1.98;;;;;;;-4.49;92.85;101918.81;4811556;29;20365;-79
2021/12/06 09:54:22;;;;;;;4.20;2.47;;;;;;;-4.38;92.66;101934.03;4808668;29;20091;-78
2021/12/06 09:56:50;;;;;;;4.05;2.80;;;;;;;-4.25;92.89;101946.50;4795641;29;20039;-78
2021/12/06 09:59:20;;;;;;;3.60;2.45;;;;;;;-4.25;92.93;101938.59;4796046;29;20042;-79
2021/12/06 10:01:50;;;;;;;2.97;1.90;;;;;;;-4.37;92.42;101936.59;4798109;29;20521;-77
2021/12/06 10:04:17;;;;;;;2.90;2.03;;;;;;;-4.23;92.38;101935.91;4807242;29;20074;-78
2021/12/06 10:06:45;;;;;;;3.45;1.88;;;;;;;-4.40;92.29;101918.34;4806736;29;20041;-78
2021/12/06 10:09:12;;;;;;;2.70;1.80;;;;;;;-4.31;92.57;101927.53;4806609;29;20118;-79
2021/12/06 10:11:38;;;;;;;3.08;2.33;;;;;;;-4.41;92.80;101927.16;4809185;29;20031;-78
2021/12/06 10:14:04;;;;;;;3.75;2.28;;;;;;;-4.39;92.56;101927.94;4802032;29;20018;-79
2021/12/06 10:16:31;;;;;;;3.22;2.10;;;;;;;-4.35;92.71;101921.59;4831945;29;20045;-78
2021/12/06 10:18:57;;;;;;;2.60;1.92;;;;;;;-4.28;92.49;101928.25;4805404;29;20420;-78
2021/12/06 10:21:27;;;;;;;2.78;1.90;;;;;;;-4.35;92.55;101913.72;4809920;29;20058;-78
2021/12/06 10:23:53;;;;;;;3.25;1.98;;;;;;;-4.22;92.21;101921.00;4809511;29;20122;-78
2021/12/06 10:26:23;;;;;;;2.78;2.05;;;;;;;-4.36;91.97;101890.16;4808730;29;20045;-78
2021/12/06 10:28:54;;;;;;;3.58;2.30;;;;;;;-4.13;91.91;101910.03;4806760;29;20019;-77
2021/12/06 10:31:19;;;;;;;2.78;1.92;;;;;;;-4.08;91.88;101902.75;4809084;29;20057;-78
2021/12/06 10:33:47;;;;;;;3.30;2.42;;;;;;;-3.84;91.49;101904.13;4814624;29;20038;-78
2021/12/06 10:36:16;;;;;;;3.75;2.15;;;;;;;-4.22;91.63;101873.69;4814804;29;20082;-79
2021/12/06 10:38:51;;;;;;;3.40;2.05;;;;;;;-4.06;91.42;101904.38;4809256;29;20030;-77
2021/12/06 10:41:18;;;;;;;3.72;2.10;;;;;;;-3.92;91.42;101908.06;4807328;29;20107;-78
2021/12/06 10:43:59;;;;;;;2.15;1.55;;;;;;;-4.24;91.23;101879.00;4802447;29;20039;-78
2021/12/06 10:46:27;;;;;;;1.95;1.50;;;;;;;-4.26;91.08;101897.50;4807392;29;20105;-78
2021/12/06 10:48:57;;;;;;;3.15;1.85;;;;;;;-4.16;91.40;101899.66;4804430;29;20091;-78
2021/12/06 10:51:26;;;;;;;3.53;1.98;;;;;;;-4.16;91.74;101899.66;4807327;29;20026;-78
2021/12/06 10:54:20;;;;;;;3.17;2.03;;;;;;;-4.14;91.81;101903.06;4807326;29;20055;-78
2021/12/06 10:56:49;;;;;;;4.65;2.20;;;;;;;-4.04;91.51;101891.13;4809672;29;20030;-79
2021/12/06 10:59:22;;;;;;;3.65;2.08;;;;;;;-4.19;91.71;101887.53;4806761;29;20050;-79
2021/12/06 11:01:51;;;;;;;5.50;2.70;;;;;;;-4.08;91.53;101890.44;4808406;29;20022;-78
2021/12/06 11:04:21;;;;;;;3.15;2.00;;;;;;;-4.04;91.51;101881.50;4804331;29;20126;-79
2021/12/06 11:06:50;;;;;;;4.25;2.33;;;;;;;-3.93;91.32;101882.72;4805784;29;20027;-78
2021/12/06 11:09:28;;;;;;;3.08;2.03;;;;;;;-3.93;91.41;101878.31;4809370;29;20058;-78
2021/12/06 11:11:59;;;;;;;2.75;1.77;;;;;;;-4.00;91.49;101884.81;4801322;29;20038;-78
2021/12/06 11:14:37;;;;;;;4.45;1.90;;;;;;;-3.94;91.56;101879.25;4807017;29;20187;-77
2021/12/06 11:17:28;;;;;;;3.38;2.08;;;;;;;-3.87;91.03;101879.78;4815831;29;20062;-78
2021/12/06 11:19:57;;;;;;;2.90;1.75;;;;;;;-3.83;90.80;101874.28;4805393;29;20046;-78
2021/12/06 11:22:25;;;;;;;2.42;1.95;;;;;;;-3.93;91.52;101873.06;4804712;29;20035;-78
2021/12/06 11:24:51;;;;;;;4.00;1.90;;;;;;;-3.94;90.93;101863.47;4805625;29;20039;-78
2021/12/06 11:27:30;;;;;;;2.80;1.88;;;;;;;-3.83;90.78;101866.38;4805813;29;20386;-79
2021/12/06 11:30:14;;;;;;;3.25;1.92;;;;;;;-3.93;90.76;101859.06;4808824;29;20031;-79
2021/12/06 11:32:43;;;;;;;3.63;1.80;;;;;;;-3.98;90.40;101858.44;4803969;29;20103;-79
2021/12/06 11:35:21;;;;;;;3.53;1.70;;;;;;;-4.01;90.93;101854.19;4803355;29;20028;-78
2021/12/06 11:37:52;;;;;;;2.80;1.60;;;;;;;-4.03;90.56;101846.38;4801399;29;20490;-79
2021/12/06 11:40:21;;;;;;;2.35;1.83;;;;;;;-3.81;90.53;101859.28;4813732;29;20351;-78
2021/12/06 11:43:03;;;;;;;4.97;2.33;;;;;;;-3.72;90.79;101859.72;4807869;29;20031;-79